»·PEaware :: N261MG KBOI-KOTH

N261MG :: KBOI-KOTH

FLIGHT INFORMATION

Flight Status: Arrived
Operator: Privately registered:
United States
More flights under this callsign
Pilot: Marty O. (15602)
Aircraft: ECLIPSE 500
(EA50)
More flights by this aircraft type
Origin: KBOI Boise Air Terminal/Gowen
United States
Destination: KOTH North Bend Mun
United States
More flights between these airports :: More routes between these airports
Route: BOI3 SAILL BUEEL
File this flight plan on PilotEdge
Remarks:
Altitude:
(Current/Filed)
36,000ft
Speed:
(Current/Filed)
360kts
Departed: 16-May-20 08:45 PM
Arrived: 16-May-20 10:07 PM
Distance/Time
Traveled:
349nm/1:22
Distance/Time
To Go:
Arrived

Flight Plot

Page will automatically refresh every two minutes.


Map Options




Map Legend


Flown Route
Filed Route
Departure Airport
Arrival Airport
Navaid (VOR, NDB)
Fix

Horizontal Profiles

Position Reports

Time Latitude Longitude Heading Altitude Ground
Speed
16-May-20 20:30 43.570695 -116.230035 94 2833ft 0kts
16-May-20 20:31 43.570695 -116.230035 94 2833ft 0kts
16-May-20 20:32 43.570695 -116.230035 94 2833ft 0kts
16-May-20 20:33 43.570695 -116.230035 94 2833ft 0kts
16-May-20 20:34 43.570695 -116.230035 94 2833ft 0kts
16-May-20 20:35 43.570695 -116.230035 94 2833ft 0kts
16-May-20 20:36 43.570191 -116.229600 184 2835ft 2kts
16-May-20 20:37 43.569584 -116.230604 210 2834ft 3kts
16-May-20 20:38 43.570574 -116.234388 296 2827ft 16kts
16-May-20 20:39 43.570921 -116.236125 240 2824ft 0kts
16-May-20 20:40 43.570921 -116.236125 240 2824ft 0kts
16-May-20 20:41 43.570921 -116.236125 240 2824ft 0kts
16-May-20 20:42 43.570921 -116.236125 240 2824ft 0kts
16-May-20 20:43 43.570921 -116.236125 240 2824ft 0kts
16-May-20 20:44 43.568573 -116.232159 115 2833ft 75kts
16-May-20 20:45 43.551294 -116.193270 131 4662ft 135kts
16-May-20 20:46 43.515173 -116.199795 268 5944ft 197kts
16-May-20 20:47 43.532402 -116.276343 283 7626ft 208kts
16-May-20 20:48 43.550998 -116.355343 281 9417ft 209kts
16-May-20 20:49 43.569681 -116.435167 280 11265ft 211kts
16-May-20 20:50 43.588056 -116.514055 279 13126ft 213kts
16-May-20 20:51 43.606519 -116.593584 278 15036ft 217kts
16-May-20 20:52 43.625190 -116.674229 276 17279ft 219kts
16-May-20 20:53 43.644320 -116.757245 276 19400ft 220kts
16-May-20 20:54 43.663888 -116.842441 275 21388ft 221kts
16-May-20 20:55 43.683511 -116.928118 275 23207ft 222kts
16-May-20 20:56 43.703207 -117.014408 273 24891ft 222kts
16-May-20 20:57 43.722911 -117.101017 273 26446ft 224kts
16-May-20 20:58 43.750810 -117.187204 277 27847ft 229kts
16-May-20 20:59 43.777468 -117.274099 277 29184ft 229kts
16-May-20 21:00 43.804606 -117.361202 277 30357ft 230kts
16-May-20 21:01 43.831578 -117.447615 277 31468ft 229kts
16-May-20 21:02 43.858292 -117.533389 277 32446ft 230kts
16-May-20 21:03 43.877464 -117.616121 256 33349ft 203kts
16-May-20 21:04 43.874039 -117.696896 256 34492ft 193kts
16-May-20 21:05 43.870912 -117.771251 256 35535ft 187kts
16-May-20 21:06 43.867655 -117.847504 256 35855ft 207kts
16-May-20 21:07 43.863891 -117.934765 258 35884ft 233kts
16-May-20 21:08 43.859847 -118.028646 258 35919ft 253kts
16-May-20 21:09 43.855416 -118.129157 258 35944ft 269kts
16-May-20 21:10 43.850670 -118.234822 259 35945ft 281kts
16-May-20 21:11 43.845656 -118.344273 259 35945ft 289kts
16-May-20 21:12 43.840338 -118.457459 259 35943ft 295kts
16-May-20 21:13 43.834712 -118.574988 259 35941ft 298kts
16-May-20 21:14 43.828848 -118.694408 258 35954ft 300kts
16-May-20 21:15 43.822880 -118.813720 258 35953ft 302kts
16-May-20 21:16 43.816851 -118.933283 257 35952ft 302kts
16-May-20 21:17 43.810686 -119.051448 255 35949ft 300kts
16-May-20 21:18 43.804384 -119.168506 255 35947ft 298kts
16-May-20 21:19 43.798197 -119.282410 255 35946ft 297kts
16-May-20 21:20 43.791895 -119.396486 255 35944ft 297kts
16-May-20 21:21 43.785501 -119.509987 255 35942ft 296kts
16-May-20 21:22 43.778827 -119.626454 255 35941ft 295kts
16-May-20 21:23 43.772197 -119.740132 255 35955ft 296kts
16-May-20 21:24 43.765242 -119.857437 255 35952ft 297kts
16-May-20 21:25 43.758067 -119.976340 255 35950ft 297kts
16-May-20 21:26 43.750663 -120.097106 254 35918ft 298kts
16-May-20 21:27 43.743027 -120.219258 255 35867ft 298kts
16-May-20 21:28 43.735293 -120.340990 255 35853ft 297kts
16-May-20 21:29 43.727447 -120.462275 255 35851ft 296kts
16-May-20 21:30 43.719541 -120.582748 254 35850ft 295kts
16-May-20 21:31 43.711733 -120.699454 254 35864ft 296kts
16-May-20 21:32 43.703884 -120.815244 254 35860ft 297kts
16-May-20 21:33 43.695620 -120.935612 254 35859ft 297kts
16-May-20 21:34 43.687179 -121.056579 253 35856ft 298kts
16-May-20 21:35 43.678562 -121.178403 252 35855ft 303kts
16-May-20 21:36 43.669647 -121.301407 252 35853ft 307kts
16-May-20 21:37 43.660701 -121.423462 252 35853ft 309kts
16-May-20 21:38 43.651890 -121.542042 252 35851ft 310kts
16-May-20 21:39 43.642965 -121.660737 252 35855ft 310kts
16-May-20 21:40 43.633691 -121.782029 252 35861ft 312kts
16-May-20 21:41 43.624132 -121.905615 252 35857ft 312kts
16-May-20 21:42 43.614129 -122.032030 252 34774ft 334kts
16-May-20 21:43 43.603807 -122.161946 253 33103ft 343kts
16-May-20 21:44 43.592907 -122.296553 253 31369ft 350kts
16-May-20 21:45 43.581644 -122.433899 254 29439ft 351kts
16-May-20 21:46 43.570456 -122.568381 255 27365ft 342kts
16-May-20 21:47 43.559348 -122.699687 254 25330ft 334kts
16-May-20 21:48 43.548062 -122.831478 255 23351ft 327kts
16-May-20 21:49 43.536882 -122.960644 255 21196ft 324kts
16-May-20 21:50 43.525742 -123.087597 254 18817ft 323kts
16-May-20 21:51 43.514714 -123.211063 254 16479ft 317kts
16-May-20 21:53 43.503989 -123.329730 254 14169ft 309kts
16-May-20 21:54 43.493465 -123.445080 254 12045ft 295kts
16-May-20 21:55 43.482862 -123.559705 254 10884ft 294kts
16-May-20 21:56 43.472333 -123.671948 255 9081ft 294kts
16-May-20 21:57 43.462811 -123.773721 255 7304ft 236kts
16-May-20 21:58 43.456259 -123.843056 255 5802ft 175kts
16-May-20 21:59 43.449925 -123.908911 256 4279ft 142kts
16-May-20 22:00 43.444480 -123.965039 257 3721ft 145kts
16-May-20 22:01 43.439577 -124.015888 257 3698ft 141kts
16-May-20 22:02 43.435488 -124.058543 256 3702ft 115kts
16-May-20 22:03 43.444862 -124.104891 284 3699ft 120kts
16-May-20 22:04 43.450405 -124.150599 266 3687ft 109kts
16-May-20 22:05 43.442122 -124.195043 235 1677ft 126kts
16-May-20 22:06 43.425534 -124.234353 238 144ft 93kts
16-May-20 22:07 43.418939 -124.246986 150 19ft 18kts
16-May-20 22:08 43.415618 -124.245645 227 23ft 0kts

Navigation Log

Ident Type
Flight plan parsing failed, navigation log unavailable